Time;durP1;ratioP1;P1;durP2;ratioP2;P2;SDS_P1;SDS_P2;PMS_P1;PMS_P2;Temp;Humidity;BMP_temperature;BMP_pressure;BME280_temperature;BME280_humidity;BME280_pressure;Samples;Min_cycle;Max_cycle;Signal;HPM_P1;HPM_P2
2022/09/25 00:00:58;;;;;;;3.33;1.45;;;15.60;99.90;;;;;;4042901;29;21032;-61
2022/09/25 00:02:58;;;;;;;3.78;1.52;;;15.50;99.90;;;;;;4042847;29;20044;-61
2022/09/25 00:04:59;;;;;;;4.55;1.35;;;15.50;99.90;;;;;;4044057;29;20408;-61
2022/09/25 00:06:59;;;;;;;4.70;1.60;;;15.50;99.90;;;;;;4044102;29;20132;-61
2022/09/25 00:09:03;;;;;;;4.90;1.70;;;15.50;99.90;;;;;;4041832;29;20045;-61
2022/09/25 00:11:15;;;;;;;4.85;1.80;;;15.50;99.90;;;;;;4044535;29;20484;-61
2022/09/25 00:13:18;;;;;;;2.93;1.20;;;15.50;99.90;;;;;;4047808;29;20507;-61
2022/09/25 00:15:18;;;;;;;4.40;1.38;;;15.50;99.90;;;;;;4038895;29;20055;-62
2022/09/25 00:17:19;;;;;;;3.60;1.20;;;15.50;99.90;;;;;;4042712;29;20033;-61
2022/09/25 00:21:41;;;;;;;4.78;1.50;;;15.50;99.90;;;;;;4044515;29;20051;-61
2022/09/25 00:23:43;;;;;;;5.22;1.38;;;15.50;99.90;;;;;;4044288;29;20396;-61
2022/09/25 00:25:52;;;;;;;5.40;1.60;;;15.50;99.90;;;;;;4042283;29;20047;-61
2022/09/25 00:27:55;;;;;;;4.75;1.52;;;15.40;99.90;;;;;;4046859;29;20467;-61
2022/09/25 00:29:55;;;;;;;3.03;1.33;;;15.40;99.90;;;;;;4041222;29;20036;-61
2022/09/25 00:31:56;;;;;;;2.53;1.20;;;15.50;99.90;;;;;;4040433;29;20051;-61
2022/09/25 00:33:59;;;;;;;4.32;1.10;;;15.50;99.90;;;;;;4043265;29;20036;-61
2022/09/25 00:36:05;;;;;;;5.03;1.45;;;15.50;99.90;;;;;;4043827;29;20069;-61
2022/09/25 00:38:05;;;;;;;3.95;1.23;;;15.50;99.90;;;;;;4039292;29;20083;-61
2022/09/25 00:40:07;;;;;;;5.85;1.50;;;15.50;99.90;;;;;;4046496;29;20041;-61
2022/09/25 00:42:12;;;;;;;2.95;1.20;;;15.40;99.90;;;;;;4044028;29;20029;-61
2022/09/25 00:44:51;;;;;;;3.17;1.02;;;15.50;99.90;;;;;;4063008;29;20042;-61
2022/09/25 00:46:52;;;;;;;3.90;1.40;;;15.50;99.90;;;;;;4043063;29;20127;-61
2022/09/25 00:49:00;;;;;;;3.75;1.38;;;15.50;99.90;;;;;;4042533;29;20128;-61
2022/09/25 00:51:01;;;;;;;3.97;1.27;;;15.50;99.90;;;;;;4042810;29;20040;-61
2022/09/25 00:53:13;;;;;;;3.97;1.48;;;15.50;99.90;;;;;;4037810;29;20437;-61
2022/09/25 00:55:14;;;;;;;3.13;1.17;;;15.40;99.90;;;;;;4045717;29;20033;-61
2022/09/25 00:57:19;;;;;;;3.47;1.13;;;15.40;99.90;;;;;;4040373;29;20036;-61
2022/09/25 00:59:28;;;;;;;6.50;1.98;;;15.40;99.90;;;;;;4040092;29;20032;-61
2022/09/25 01:01:29;;;;;;;6.63;1.50;;;15.50;99.90;;;;;;4044542;29;20092;-61
2022/09/25 01:03:30;;;;;;;3.95;1.35;;;15.50;99.90;;;;;;4044581;29;20044;-60
2022/09/25 01:05:34;;;;;;;4.38;1.23;;;15.50;99.90;;;;;;4036438;29;20041;-61
2022/09/25 01:07:37;;;;;;;7.18;1.42;;;15.40;99.90;;;;;;4042257;29;20041;-61
2022/09/25 01:09:39;;;;;;;3.65;1.15;;;15.40;99.90;;;;;;4038922;29;20069;-61
2022/09/25 01:11:39;;;;;;;2.33;1.02;;;15.40;99.90;;;;;;4039735;29;20065;-61
2022/09/25 01:13:40;;;;;;;3.88;1.65;;;15.40;99.90;;;;;;4044055;29;20493;-61
2022/09/25 01:16:07;;;;;;;4.65;1.45;;;15.40;99.90;;;;;;4043283;29;20028;-61
2022/09/25 01:18:15;;;;;;;3.70;1.33;;;15.40;99.90;;;;;;4042772;29;20041;-61
2022/09/25 01:20:52;;;;;;;5.32;1.63;;;15.40;99.90;;;;;;4041137;29;20033;-61
2022/09/25 01:23:11;;;;;;;3.90;1.35;;;15.40;99.90;;;;;;4042956;29;20507;-61
2022/09/25 01:25:40;;;;;;;7.15;1.58;;;15.40;99.90;;;;;;4039537;29;20108;-61
2022/09/25 01:28:06;;;;;;;7.10;2.10;;;15.40;99.90;;;;;;4039173;29;20089;-60
2022/09/25 01:30:11;;;;;;;4.65;1.60;;;15.40;99.90;;;;;;4038157;29;20066;-61
2022/09/25 01:32:26;;;;;;;4.60;1.73;;;15.30;99.90;;;;;;4043808;29;20492;-61
2022/09/25 01:34:37;;;;;;;3.55;1.60;;;15.30;99.90;;;;;;4037662;29;20036;-61
2022/09/25 01:36:46;;;;;;;5.20;1.48;;;15.30;99.90;;;;;;4042604;29;20036;-61
2022/09/25 01:38:51;;;;;;;3.70;1.70;;;15.30;99.90;;;;;;4039651;29;20045;-61
2022/09/25 01:41:27;;;;;;;4.70;1.55;;;15.30;99.90;;;;;;4039023;29;20121;-61
2022/09/25 01:43:39;;;;;;;7.97;2.08;;;15.30;99.90;;;;;;4047298;29;20119;-61
2022/09/25 01:45:40;;;;;;;3.95;1.90;;;15.20;99.90;;;;;;4040281;29;20045;-60
2022/09/25 01:47:43;;;;;;;4.20;1.95;;;15.20;99.90;;;;;;4042083;29;20041;-61
2022/09/25 01:49:49;;;;;;;8.73;2.35;;;15.20;99.90;;;;;;4042950;29;20488;-61
2022/09/25 01:51:52;;;;;;;6.28;2.00;;;15.20;99.90;;;;;;4043805;29;20473;-61
2022/09/25 01:53:57;;;;;;;4.80;1.70;;;15.20;99.90;;;;;;4041667;29;20032;-60
2022/09/25 01:56:06;;;;;;;3.92;1.77;;;15.20;99.90;;;;;;4043149;29;20048;-60
2022/09/25 01:58:13;;;;;;;5.20;1.85;;;15.20;99.90;;;;;;4041609;29;20037;-60
2022/09/25 02:00:18;;;;;;;6.43;1.92;;;15.20;99.90;;;;;;4041977;29;20040;-61
2022/09/25 02:02:23;;;;;;;5.43;1.85;;;15.20;99.90;;;;;;4038138;29;20120;-64
2022/09/25 02:04:36;;;;;;;4.35;1.60;;;15.20;99.90;;;;;;4042402;29;20045;-61
2022/09/25 02:06:38;;;;;;;6.28;2.15;;;15.30;99.90;;;;;;4042764;29;20033;-61
2022/09/25 02:08:54;;;;;;;5.30;1.73;;;15.30;99.90;;;;;;4047457;29;20044;-61
2022/09/25 02:11:01;;;;;;;6.78;2.20;;;15.20;99.90;;;;;;4043828;29;20415;-61
2022/09/25 02:13:09;;;;;;;4.07;1.70;;;15.20;99.90;;;;;;4043664;29;20064;-61
2022/09/25 02:15:15;;;;;;;4.53;1.85;;;15.20;99.90;;;;;;4042189;29;20127;-61
2022/09/25 02:22:34;;;;;;;3.55;1.52;;;15.20;99.90;;;;;;4044036;29;20037;-61
2022/09/25 02:24:49;;;;;;;4.75;1.58;;;15.20;99.90;;;;;;4045224;29;20032;-61
2022/09/25 02:26:51;;;;;;;7.40;2.35;;;15.20;99.90;;;;;;4039684;29;20037;-62
2022/09/25 02:28:52;;;;;;;4.47;1.80;;;15.20;99.90;;;;;;4043698;29;20570;-61
2022/09/25 02:30:56;;;;;;;2.65;1.45;;;15.20;99.90;;;;;;4040840;29;20508;-61
2022/09/25 02:32:57;;;;;;;4.95;1.85;;;15.20;99.90;;;;;;4043261;29;20044;-61
2022/09/25 02:34:59;;;;;;;6.93;1.58;;;15.10;99.90;;;;;;4044474;29;20412;-61
2022/09/25 02:36:59;;;;;;;4.40;1.67;;;15.10;99.90;;;;;;4047790;29;20658;-61
2022/09/25 02:39:02;;;;;;;6.78;2.20;;;15.10;99.90;;;;;;4043405;29;20065;-61
2022/09/25 02:41:45;;;;;;;6.28;1.80;;;15.10;99.90;;;;;;4043442;29;20032;-61
2022/09/25 02:44:04;;;;;;;3.72;1.60;;;15.10;99.90;;;;;;4042824;29;20033;-61
2022/09/25 02:46:22;;;;;;;6.97;1.85;;;15.00;99.90;;;;;;4043285;29;20131;-61
2022/09/25 02:48:28;;;;;;;3.63;1.60;;;15.00;99.90;;;;;;4042889;29;20043;-61
2022/09/25 02:50:51;;;;;;;6.70;1.50;;;15.00;99.90;;;;;;4042278;29;20060;-61
2022/09/25 02:53:20;;;;;;;5.32;1.52;;;15.00;99.90;;;;;;4044438;29;20067;-61
2022/09/25 02:55:24;;;;;;;3.90;1.58;;;15.00;99.90;;;;;;4041724;29;20064;-61
2022/09/25 02:57:54;;;;;;;4.68;1.60;;;14.90;99.90;;;;;;4042415;29;20036;-61
2022/09/25 03:00:00;;;;;;;4.38;1.40;;;14.90;99.90;;;;;;4041532;29;20044;-61
2022/09/25 03:02:02;;;;;;;4.38;1.80;;;14.90;99.90;;;;;;4042367;29;20040;-61
2022/09/25 03:04:04;;;;;;;5.20;1.70;;;14.90;99.90;;;;;;4044816;29;20060;-61
2022/09/25 03:06:07;;;;;;;4.55;1.52;;;14.90;99.90;;;;;;4043963;29;20092;-60
2022/09/25 03:10:30;;;;;;;5.97;1.60;;;14.90;99.90;;;;;;4046317;29;20037;-60
2022/09/25 03:12:35;;;;;;;4.25;1.00;;;14.90;99.90;;;;;;4043766;29;20033;-61
2022/09/25 03:14:36;;;;;;;3.53;1.25;;;14.90;99.90;;;;;;4046820;29;20059;-61
2022/09/25 03:16:43;;;;;;;5.00;1.40;;;14.90;99.90;;;;;;4040555;29;20036;-61
2022/09/25 03:18:44;;;;;;;5.32;1.58;;;14.90;99.90;;;;;;4043019;29;20028;-60
2022/09/25 03:20:45;;;;;;;5.57;1.95;;;14.80;99.90;;;;;;4043471;29;20044;-61
2022/09/25 03:22:46;;;;;;;3.67;1.42;;;14.80;99.90;;;;;;4044643;29;20059;-60
2022/09/25 03:24:47;;;;;;;8.40;1.50;;;14.80;99.90;;;;;;4042521;29;20033;-60
2022/09/25 03:26:48;;;;;;;3.80;1.30;;;14.80;99.90;;;;;;4042792;29;20099;-61
2022/09/25 03:28:49;;;;;;;3.67;1.50;;;14.80;99.90;;;;;;4044637;29;20049;-67
2022/09/25 03:31:00;;;;;;;7.78;1.30;;;14.80;99.90;;;;;;4042919;29;20531;-61
2022/09/25 03:33:00;;;;;;;4.82;1.42;;;14.80;99.90;;;;;;4044465;29;20041;-61
2022/09/25 03:35:01;;;;;;;3.83;1.20;;;14.80;99.90;;;;;;4044783;29;20529;-61
2022/09/25 03:37:01;;;;;;;4.50;1.45;;;14.80;99.90;;;;;;4040534;29;20055;-60
2022/09/25 03:39:02;;;;;;;4.97;1.25;;;14.80;99.90;;;;;;4042046;29;20044;-60
2022/09/25 03:41:07;;;;;;;2.85;1.40;;;14.80;99.90;;;;;;4043124;29;20555;-60
2022/09/25 03:43:08;;;;;;;5.30;1.65;;;14.80;99.90;;;;;;4042711;29;20052;-61
2022/09/25 03:45:09;;;;;;;2.83;1.05;;;14.80;99.90;;;;;;4044983;29;20131;-62
2022/09/25 03:47:09;;;;;;;6.68;1.20;;;14.80;99.90;;;;;;4042043;29;20524;-61
2022/09/25 03:49:11;;;;;;;2.92;1.02;;;14.80;99.90;;;;;;4044244;29;20070;-60
2022/09/25 03:51:13;;;;;;;4.40;1.70;;;14.80;99.90;;;;;;4043958;29;20044;-61
2022/09/25 03:53:13;;;;;;;3.10;1.08;;;14.80;99.90;;;;;;4042414;29;20044;-60
2022/09/25 03:55:14;;;;;;;2.25;0.82;;;14.80;99.90;;;;;;4044212;29;20385;-60
2022/09/25 03:57:14;;;;;;;3.35;1.38;;;14.70;99.90;;;;;;4044051;29;20072;-60
2022/09/25 03:59:15;;;;;;;8.43;1.48;;;14.70;99.90;;;;;;4043045;29;20028;-61
2022/09/25 04:01:18;;;;;;;4.03;1.10;;;14.70;99.90;;;;;;4041333;29;20029;-60
2022/09/25 04:03:21;;;;;;;4.50;1.48;;;14.70;99.90;;;;;;4058016;29;20037;-60
2022/09/25 04:05:21;;;;;;;;;;;14.70;99.90;;;;;;4042084;29;20036;-61
2022/09/25 04:07:23;;;;;;;3.78;1.38;;;14.70;99.90;;;;;;4043460;29;19912;-61
2022/09/25 04:09:24;;;;;;;4.07;1.30;;;14.70;99.90;;;;;;4042425;29;20043;-60
2022/09/25 04:11:24;;;;;;;4.47;1.50;;;14.70;99.90;;;;;;4041901;29;20149;-61
2022/09/25 04:13:28;;;;;;;2.03;0.80;;;14.70;99.90;;;;;;4043419;29;20040;-61
2022/09/25 04:15:30;;;;;;;3.90;1.50;;;14.60;99.90;;;;;;4043311;29;20037;-61
2022/09/25 04:17:30;;;;;;;6.25;1.30;;;14.60;99.90;;;;;;4043821;29;20080;-60
2022/09/25 04:19:31;;;;;;;6.13;1.50;;;14.60;99.90;;;;;;4043652;29;20076;-61
2022/09/25 04:21:31;;;;;;;6.05;1.65;;;14.70;99.90;;;;;;4040656;29;20520;-60
2022/09/25 04:23:32;;;;;;;4.25;1.40;;;14.70;99.90;;;;;;4046284;29;20544;-60
2022/09/25 04:25:33;;;;;;;4.40;1.60;;;14.70;99.90;;;;;;4041527;29;20064;-60
2022/09/25 04:27:34;;;;;;;4.10;1.27;;;14.60;99.90;;;;;;4044086;29;20048;-60
2022/09/25 04:29:34;;;;;;;3.25;1.25;;;14.60;99.90;;;;;;4042890;29;20512;-60
2022/09/25 04:31:35;;;;;;;2.88;1.05;;;14.60;99.90;;;;;;4041778;29;20064;-60
2022/09/25 04:33:47;;;;;;;4.47;1.27;;;14.60;99.90;;;;;;4043781;29;20037;-60
2022/09/25 04:35:48;;;;;;;4.35;1.33;;;14.60;99.90;;;;;;4040788;29;20461;-60
2022/09/25 04:37:48;;;;;;;2.65;1.20;;;14.60;99.90;;;;;;4040674;29;20218;-60
2022/09/25 04:39:49;;;;;;;5.20;1.45;;;14.50;99.90;;;;;;4041753;29;20040;-60
2022/09/25 04:41:50;;;;;;;6.72;1.33;;;14.50;99.90;;;;;;4042631;29;20208;-60
2022/09/25 04:43:50;;;;;;;5.03;0.93;;;14.50;99.90;;;;;;4042284;29;20041;-60
2022/09/25 04:45:51;;;;;;;5.53;1.23;;;14.50;99.90;;;;;;4041614;29;20088;-60
2022/09/25 04:47:53;;;;;;;3.63;0.90;;;14.50;99.90;;;;;;4042073;29;20025;-61
2022/09/25 04:49:54;;;;;;;3.63;1.40;;;14.50;99.90;;;;;;4039901;29;20044;-61
2022/09/25 04:51:55;;;;;;;6.30;1.58;;;14.50;99.90;;;;;;4042687;29;20041;-60
2022/09/25 04:53:55;;;;;;;4.55;1.33;;;14.50;99.90;;;;;;4039896;29;20028;-60
2022/09/25 04:56:01;;;;;;;4.07;1.30;;;14.50;99.90;;;;;;4038267;29;20045;-62
2022/09/25 04:58:02;;;;;;;3.50;1.08;;;14.50;99.90;;;;;;4046622;29;20036;-60
2022/09/25 05:00:05;;;;;;;2.97;1.20;;;14.50;99.90;;;;;;4041588;29;20504;-61
2022/09/25 05:02:05;;;;;;;5.80;1.50;;;14.50;99.90;;;;;;4045666;29;20404;-61
2022/09/25 05:04:06;;;;;;;4.25;1.20;;;14.50;99.90;;;;;;4040689;29;20048;-61
2022/09/25 05:06:06;;;;;;;3.92;1.20;;;14.50;99.90;;;;;;4043819;29;20033;-61
2022/09/25 05:08:09;;;;;;;5.32;1.35;;;14.40;99.90;;;;;;4042840;29;20052;-60
2022/09/25 05:10:10;;;;;;;;;;;14.40;99.90;;;;;;4040670;29;20033;-62
2022/09/25 05:12:11;;;;;;;2.85;1.20;;;14.40;99.90;;;;;;4042817;29;19915;-60
2022/09/25 05:14:12;;;;;;;3.28;1.20;;;14.40;99.90;;;;;;4039622;29;20129;-60
2022/09/25 05:16:13;;;;;;;5.82;1.23;;;14.30;99.90;;;;;;4046412;29;20033;-61
2022/09/25 05:18:17;;;;;;;2.33;1.35;;;14.30;99.90;;;;;;4039452;29;20079;-60
2022/09/25 05:20:17;;;;;;;5.18;1.65;;;14.30;99.90;;;;;;4042191;29;20540;-60
2022/09/25 05:22:18;;;;;;;1.80;1.10;;;14.30;99.90;;;;;;4040145;29;20037;-60
2022/09/25 05:24:19;;;;;;;4.85;1.50;;;14.30;99.90;;;;;;4058761;29;20067;-60
2022/09/25 05:26:21;;;;;;;2.22;1.05;;;14.30;99.90;;;;;;4043390;29;20566;-60
2022/09/25 05:28:22;;;;;;;5.28;1.35;;;14.30;99.90;;;;;;4041815;29;20033;-64
2022/09/25 05:30:28;;;;;;;3.35;1.17;;;14.20;99.90;;;;;;4054151;29;20411;-61
2022/09/25 05:32:29;;;;;;;4.00;1.10;;;14.30;99.90;;;;;;4037155;29;20560;-60
2022/09/25 05:34:30;;;;;;;4.57;1.40;;;14.30;99.90;;;;;;4039074;29;20089;-60
2022/09/25 05:36:32;;;;;;;3.05;1.20;;;14.20;99.90;;;;;;4037329;29;20404;-61
2022/09/25 05:38:34;;;;;;;4.13;1.70;;;14.30;99.90;;;;;;4043811;29;20500;-60
2022/09/25 05:40:37;;;;;;;5.88;1.15;;;14.20;99.90;;;;;;4037992;29;20285;-60
2022/09/25 05:42:38;;;;;;;6.38;1.70;;;14.10;99.90;;;;;;4060312;29;20048;-60
2022/09/25 05:44:40;;;;;;;4.45;1.50;;;14.10;99.90;;;;;;4041842;29;20039;-63
2022/09/25 05:46:41;;;;;;;2.30;1.27;;;14.10;99.90;;;;;;4037885;29;20560;-64
2022/09/25 05:48:41;;;;;;;2.25;1.20;;;14.10;99.90;;;;;;4039523;29;20071;-63
2022/09/25 05:50:42;;;;;;;5.30;1.50;;;14.10;99.90;;;;;;4040222;29;20124;-63
2022/09/25 05:52:43;;;;;;;5.65;1.52;;;14.10;99.90;;;;;;4041420;29;20096;-63
2022/09/25 05:54:43;;;;;;;7.18;1.15;;;14.10;99.90;;;;;;4039443;29;20033;-63
2022/09/25 05:56:44;;;;;;;5.85;1.70;;;14.10;99.90;;;;;;4042719;29;20036;-63
2022/09/25 05:58:46;;;;;;;6.93;1.92;;;14.00;99.90;;;;;;4042357;29;20041;-63
2022/09/25 06:00:47;;;;;;;3.67;1.53;;;14.00;99.90;;;;;;4039557;29;20037;-63
2022/09/25 06:02:51;;;;;;;6.68;2.10;;;14.00;99.90;;;;;;4041107;29;20095;-64
2022/09/25 06:04:52;;;;;;;4.15;1.55;;;14.00;99.90;;;;;;4039042;29;20550;-67
2022/09/25 06:06:53;;;;;;;4.85;1.63;;;13.90;99.90;;;;;;4039613;29;20033;-64
2022/09/25 06:08:54;;;;;;;6.75;1.55;;;13.90;99.90;;;;;;4042669;29;20388;-65
2022/09/25 06:10:54;;;;;;;5.45;2.13;;;13.90;99.90;;;;;;4041300;29;20063;-64
2022/09/25 06:13:00;;;;;;;4.53;1.27;;;13.80;99.90;;;;;;4040810;29;20382;-64
2022/09/25 06:15:00;;;;;;;4.20;1.60;;;13.80;99.90;;;;;;4041359;29;20045;-64
2022/09/25 06:17:01;;;;;;;4.63;1.80;;;13.80;99.90;;;;;;4042180;29;20515;-64
2022/09/25 06:19:02;;;;;;;3.88;1.52;;;13.80;99.90;;;;;;4038939;29;20029;-63
2022/09/25 06:21:04;;;;;;;3.80;1.35;;;13.80;99.90;;;;;;4041038;29;20051;-63
2022/09/25 06:23:04;;;;;;;3.72;1.70;;;13.80;99.90;;;;;;4040622;29;20037;-63
2022/09/25 06:25:06;;;;;;;2.80;1.38;;;13.80;99.90;;;;;;4039719;29;20083;-68
2022/09/25 06:27:06;;;;;;;5.30;1.60;;;13.80;99.90;;;;;;4039873;29;20412;-63
2022/09/25 06:29:07;;;;;;;7.22;1.88;;;13.70;99.90;;;;;;4041662;29;20033;-63
2022/09/25 06:31:08;;;;;;;7.30;2.10;;;13.80;99.90;;;;;;4041333;29;20051;-64
2022/09/25 06:33:11;;;;;;;5.82;1.80;;;13.80;99.90;;;;;;4040359;29;20167;-63
2022/09/25 06:35:12;;;;;;;3.00;1.60;;;13.80;99.90;;;;;;4041995;29;20458;-64
2022/09/25 06:37:12;;;;;;;8.10;1.88;;;13.80;99.90;;;;;;4038632;29;20060;-64
2022/09/25 06:39:13;;;;;;;10.45;2.40;;;13.90;99.90;;;;;;4054281;29;20040;-63
2022/09/25 06:41:13;;;;;;;4.97;1.67;;;14.00;99.90;;;;;;4040906;29;20470;-64
2022/09/25 06:43:15;;;;;;;3.63;1.70;;;14.10;99.90;;;;;;4054251;29;20037;-64
2022/09/25 06:45:16;;;;;;;5.63;1.88;;;14.20;99.90;;;;;;4042920;29;20587;-63
2022/09/25 06:47:16;;;;;;;4.50;1.60;;;14.30;99.90;;;;;;4036663;29;20029;-64
2022/09/25 06:49:17;;;;;;;4.00;1.50;;;14.40;99.90;;;;;;4040409;29;20519;-64
2022/09/25 06:51:17;;;;;;;4.45;1.65;;;14.50;99.90;;;;;;4040285;29;20058;-63
2022/09/25 06:53:20;;;;;;;4.07;1.65;;;14.50;99.90;;;;;;4042781;29;20121;-64
2022/09/25 06:55:21;;;;;;;4.57;1.83;;;14.50;99.90;;;;;;4042990;29;20036;-64
2022/09/25 06:57:21;;;;;;;4.15;1.77;;;14.60;99.90;;;;;;4041757;29;20473;-64
2022/09/25 06:59:24;;;;;;;5.05;1.88;;;14.60;99.90;;;;;;4044304;29;20408;-63
2022/09/25 07:01:25;;;;;;;4.30;1.80;;;14.70;99.90;;;;;;4040660;29;20041;-64
2022/09/25 07:03:44;;;;;;;6.38;1.92;;;14.70;99.90;;;;;;4058504;29;20040;-64
2022/09/25 07:05:46;;;;;;;6.07;1.85;;;14.80;99.90;;;;;;4044499;29;20070;-64
2022/09/25 07:07:47;;;;;;;;;;;14.80;99.90;;;;;;4044944;29;20051;-64
2022/09/25 07:09:48;;;;;;;4.53;1.48;;;14.90;99.90;;;;;;4042573;29;19947;-64
2022/09/25 07:11:50;;;;;;;3.58;1.45;;;15.00;99.90;;;;;;4042743;29;20501;-64
2022/09/25 07:13:53;;;;;;;5.82;1.98;;;15.10;99.90;;;;;;4045901;29;20083;-64
2022/09/25 07:15:59;;;;;;;4.57;1.77;;;15.20;99.90;;;;;;4044503;29;20436;-64
2022/09/25 07:18:00;;;;;;;5.25;1.60;;;15.30;99.90;;;;;;4044109;29;20051;-64
2022/09/25 07:20:01;;;;;;;4.05;1.65;;;15.50;99.90;;;;;;4043490;29;20069;-64
2022/09/25 07:22:03;;;;;;;3.22;1.10;;;15.60;99.90;;;;;;4045007;29;20127;-65
2022/09/25 07:24:04;;;;;;;;;;;15.80;99.90;;;;;;4057745;29;20040;-65
2022/09/25 07:26:10;;;;;;;5.20;1.83;;;15.90;99.90;;;;;;4044038;29;19920;-65
2022/09/25 07:28:12;;;;;;;3.63;1.15;;;16.00;99.90;;;;;;4044502;29;20091;-64
2022/09/25 07:30:13;;;;;;;3.25;1.70;;;16.20;99.90;;;;;;4042764;29;22589;-64
2022/09/25 07:32:14;;;;;;;3.75;1.20;;;16.50;99.90;;;;;;4041876;29;20053;-64
2022/09/25 07:34:15;;;;;;;3.70;1.15;;;16.80;99.90;;;;;;4042678;29;20143;-64
2022/09/25 07:36:16;;;;;;;3.03;0.90;;;17.10;99.90;;;;;;4046880;29;20124;-65
2022/09/25 07:38:18;;;;;;;5.65;1.30;;;17.40;99.90;;;;;;4048647;29;20481;-65
2022/09/25 07:40:18;;;;;;;3.97;1.33;;;17.70;99.90;;;;;;4041926;29;20056;-65
2022/09/25 07:42:19;;;;;;;4.35;1.38;;;18.00;99.90;;;;;;4041191;29;20120;-65
2022/09/25 07:44:20;;;;;;;2.92;1.20;;;18.40;99.90;;;;;;4037339;29;20037;-65
2022/09/25 07:46:20;;;;;;;2.50;0.90;;;18.70;99.90;;;;;;4042895;29;20081;-65
2022/09/25 07:48:22;;;;;;;3.33;1.13;;;19.10;99.90;;;;;;4043843;29;20056;-66
2022/09/25 07:50:22;;;;;;;1.70;0.90;;;19.40;99.90;;;;;;4043557;29;20068;-66
2022/09/25 07:52:23;;;;;;;3.63;1.17;;;19.70;99.90;;;;;;4045684;29;20040;-66
2022/09/25 07:54:24;;;;;;;2.80;0.98;;;20.00;99.90;;;;;;4039481;29;20049;-66
2022/09/25 07:56:25;;;;;;;1.63;0.88;;;20.20;99.90;;;;;;4040744;29;20033;-66
2022/09/25 07:58:27;;;;;;;4.85;1.15;;;20.50;99.90;;;;;;4042554;29;20070;-67
2022/09/25 08:00:27;;;;;;;10.50;1.65;;;20.60;99.90;;;;;;4038923;29;20929;-67
2022/09/25 08:02:28;;;;;;;3.10;0.90;;;20.90;99.90;;;;;;4046348;29;20047;-67
2022/09/25 08:04:28;;;;;;;4.22;1.00;;;21.10;99.90;;;;;;4042546;29;20045;-66
2022/09/25 08:06:32;;;;;;;2.28;0.98;;;21.20;99.90;;;;;;4042682;29;20493;-67
2022/09/25 08:08:33;;;;;;;3.03;1.10;;;21.30;99.90;;;;;;4043557;29;20096;-67
2022/09/25 08:10:34;;;;;;;3.97;1.00;;;21.40;99.90;;;;;;4042609;29;20045;-66
2022/09/25 08:12:35;;;;;;;2.50;1.00;;;21.50;99.90;;;;;;4041474;29;20112;-67
2022/09/25 08:14:36;;;;;;;1.67;1.02;;;21.50;99.90;;;;;;4047788;29;20037;-66
2022/09/25 08:16:37;;;;;;;3.13;0.82;;;21.50;99.90;;;;;;4040593;29;20045;-67
2022/09/25 08:18:41;;;;;;;3.67;1.20;;;21.50;99.90;;;;;;4040852;29;20049;-67
2022/09/25 08:20:42;;;;;;;5.28;1.20;;;21.50;99.90;;;;;;4054229;29;20562;-67
2022/09/25 08:22:42;;;;;;;5.43;1.08;;;21.40;99.90;;;;;;4040126;29;20033;-67
2022/09/25 08:24:43;;;;;;;3.97;1.10;;;21.40;99.90;;;;;;4039899;29;20041;-67
2022/09/25 08:26:45;;;;;;;2.97;1.15;;;21.40;99.90;;;;;;4042935;29;20485;-67
2022/09/25 08:28:46;;;;;;;4.82;1.25;;;21.40;99.90;;;;;;4045044;29;20037;-66
2022/09/25 08:30:47;;;;;;;3.72;0.90;;;21.30;99.90;;;;;;4042043;29;20083;-66
2022/09/25 08:32:48;;;;;;;4.03;1.13;;;21.30;99.90;;;;;;4045812;29;20128;-66
2022/09/25 08:34:48;;;;;;;2.20;0.75;;;21.30;99.80;;;;;;4043460;29;20036;-67
2022/09/25 08:36:53;;;;;;;3.60;0.80;;;21.30;99.90;;;;;;4041075;29;20067;-66
2022/09/25 08:38:55;;;;;;;2.88;1.08;;;21.30;99.90;;;;;;4041779;29;20127;-66
2022/09/25 08:41:03;;;;;;;3.13;1.33;;;21.20;99.90;;;;;;4042060;29;20392;-68
2022/09/25 08:43:05;;;;;;;3.08;0.73;;;21.20;99.90;;;;;;4045762;29;20037;-67
2022/09/25 08:50:01;;;;;;;2.97;1.10;;;21.20;99.80;;;;;;4045101;29;20093;-67
2022/09/25 08:52:10;;;;;;;4.45;0.90;;;21.20;99.70;;;;;;4043549;29;20486;-67
2022/09/25 08:54:19;;;;;;;4.00;1.08;;;21.20;99.90;;;;;;4041867;29;20378;-66
2022/09/25 08:56:20;;;;;;;1.98;0.82;;;21.20;99.90;;;;;;4041136;29;20452;-67
2022/09/25 08:58:32;;;;;;;2.53;0.85;;;21.10;99.90;;;;;;4043506;29;20048;-67
2022/09/25 09:00:33;;;;;;;6.00;1.00;;;21.00;99.60;;;;;;4042720;29;20037;-67
2022/09/25 09:02:50;;;;;;;4.93;1.20;;;21.00;99.90;;;;;;4042634;29;20396;-67
2022/09/25 09:04:54;;;;;;;3.63;1.10;;;20.90;99.90;;;;;;4041346;29;20057;-66
2022/09/25 09:07:05;;;;;;;4.20;0.80;;;20.80;99.90;;;;;;4043721;29;20035;-68
2022/09/25 09:09:12;;;;;;;4.57;0.93;;;20.70;99.90;;;;;;4043127;29;20105;-66
2022/09/25 09:11:25;;;;;;;4.85;1.45;;;20.70;99.90;;;;;;4040513;29;20048;-66
2022/09/25 09:13:27;;;;;;;;;;;20.30;97.90;;;;;;4043029;29;20040;-67
2022/09/25 09:15:30;;;;;;;3.27;0.60;;;20.20;99.90;;;;;;4040830;29;19915;-67
2022/09/25 09:17:40;;;;;;;3.30;1.00;;;20.00;99.00;;;;;;4039760;29;20257;-68
2022/09/25 09:19:41;;;;;;;5.30;1.00;;;19.90;99.90;;;;;;4042570;29;20408;-66
2022/09/25 09:21:46;;;;;;;3.17;1.02;;;19.70;99.10;;;;;;4041160;29;20089;-67
2022/09/25 09:24:05;;;;;;;2.10;1.05;;;19.60;99.90;;;;;;4043478;29;20029;-67
2022/09/25 09:26:24;;;;;;;5.15;0.90;;;19.60;99.90;;;;;;4038835;29;20029;-66
2022/09/25 09:28:43;;;;;;;4.35;1.13;;;19.40;99.50;;;;;;4042376;29;20473;-66
2022/09/25 09:31:32;;;;;;;3.08;0.82;;;19.30;99.90;;;;;;4040072;29;20033;-66
2022/09/25 09:33:50;;;;;;;1.38;0.70;;;19.30;99.90;;;;;;4021924;29;20456;-67
2022/09/25 09:35:59;;;;;;;2.95;0.88;;;19.30;99.90;;;;;;4038885;29;20073;-66
2022/09/25 09:38:37;;;;;;;5.30;1.20;;;19.30;99.80;;;;;;4042428;29;20025;-65
2022/09/25 09:41:02;;;;;;;3.60;0.90;;;19.30;99.90;;;;;;4042324;29;20044;-66
2022/09/25 09:43:24;;;;;;;2.47;0.70;;;19.40;99.90;;;;;;4042377;29;20029;-67
2022/09/25 09:45:31;;;;;;;3.90;0.90;;;19.40;99.90;;;;;;4042595;29;20052;-66
2022/09/25 09:48:04;;;;;;;2.10;0.75;;;19.50;99.90;;;;;;4040137;29;20449;-67
2022/09/25 09:50:10;;;;;;;1.65;0.60;;;19.60;99.90;;;;;;4041193;29;20057;-67
2022/09/25 09:52:28;;;;;;;3.03;0.93;;;19.60;99.90;;;;;;4040763;29;20505;-66
2022/09/25 09:54:42;;;;;;;3.25;0.80;;;19.70;99.90;;;;;;4044056;29;20412;-67
2022/09/25 09:56:47;;;;;;;2.08;0.80;;;19.70;99.90;;;;;;4041245;29;20037;-65
2022/09/25 09:59:02;;;;;;;3.17;0.75;;;19.80;99.90;;;;;;4039381;29;20481;-66
2022/09/25 10:01:03;;;;;;;2.22;0.57;;;19.50;96.60;;;;;;4041970;29;20040;-69
2022/09/25 10:03:09;;;;;;;2.08;0.60;;;19.70;99.90;;;;;;4038855;29;20057;-66
2022/09/25 10:05:30;;;;;;;7.93;0.90;;;19.70;99.90;;;;;;4042703;29;20156;-68
2022/09/25 10:07:34;;;;;;;5.53;0.90;;;19.70;99.90;;;;;;4041706;29;20064;-67
2022/09/25 10:09:36;;;;;;;4.35;1.08;;;19.80;99.90;;;;;;4040234;29;20052;-66
2022/09/25 10:11:39;;;;;;;2.75;1.10;;;19.70;99.90;;;;;;4040720;29;20037;-66
2022/09/25 10:13:40;;;;;;;3.25;0.60;;;19.70;99.90;;;;;;4043335;29;20064;-66
2022/09/25 10:16:00;;;;;;;2.95;0.95;;;19.80;99.90;;;;;;4046964;29;20060;-67
2022/09/25 10:18:02;;;;;;;2.10;0.80;;;19.80;99.60;;;;;;4043350;29;20038;-66
2022/09/25 10:20:32;;;;;;;3.22;0.88;;;19.80;99.90;;;;;;4042068;29;20035;-66
2022/09/25 10:22:38;;;;;;;7.15;1.10;;;19.80;99.90;;;;;;4043025;29;20486;-67
2022/09/25 10:24:50;;;;;;;2.10;0.70;;;19.80;99.90;;;;;;4042218;29;20128;-66
2022/09/25 10:26:51;;;;;;;2.27;0.67;;;19.70;99.90;;;;;;4057184;29;20514;-66
2022/09/25 10:28:52;;;;;;;5.10;1.20;;;19.60;99.90;;;;;;4044640;29;20044;-66
2022/09/25 10:30:54;;;;;;;2.50;0.77;;;19.50;99.90;;;;;;4038959;29;20041;-66
2022/09/25 10:33:18;;;;;;;3.55;0.73;;;19.50;99.90;;;;;;4045268;29;20397;-66
2022/09/25 10:35:29;;;;;;;3.05;0.70;;;19.40;99.90;;;;;;4045706;29;20048;-66
2022/09/25 10:37:34;;;;;;;2.13;0.60;;;19.40;99.90;;;;;;4045717;29;20392;-66
2022/09/25 10:39:39;;;;;;;3.65;0.80;;;19.40;99.90;;;;;;4040475;29;20041;-66
2022/09/25 10:41:42;;;;;;;1.77;0.80;;;19.40;99.90;;;;;;4044162;29;20403;-65
2022/09/25 10:44:00;;;;;;;4.25;1.35;;;19.40;99.90;;;;;;4048601;29;20044;-66
2022/09/25 10:46:11;;;;;;;2.22;0.77;;;19.40;98.60;;;;;;4040887;29;20055;-67
2022/09/25 10:51:07;;;;;;;1.75;0.60;;;19.40;99.50;;;;;;4046744;29;20064;-66
2022/09/25 10:53:28;;;;;;;3.63;0.85;;;19.40;99.90;;;;;;4046889;29;20127;-66
2022/09/25 10:55:31;;;;;;;2.40;0.50;;;19.40;99.60;;;;;;4041582;29;20041;-66
2022/09/25 10:57:37;;;;;;;2.72;0.65;;;19.40;99.30;;;;;;4040114;29;20052;-67
2022/09/25 10:59:38;;;;;;;2.25;0.60;;;19.50;99.90;;;;;;4040131;29;20041;-66
2022/09/25 11:01:41;;;;;;;2.60;0.65;;;19.50;99.90;;;;;;4044620;29;20139;-66
2022/09/25 11:03:51;;;;;;;2.38;0.70;;;19.50;99.90;;;;;;4048112;29;20061;-67
2022/09/25 11:05:58;;;;;;;3.42;0.95;;;19.50;99.90;;;;;;4045003;29;20380;-66
2022/09/25 11:08:01;;;;;;;2.60;0.85;;;19.60;99.90;;;;;;4041507;29;20452;-66
2022/09/25 11:10:03;;;;;;;3.45;0.98;;;19.50;99.90;;;;;;4042479;29;20033;-66